createdAt,value
2019-04-10T00:01:49.004Z,55.80
2019-04-10T00:04:17.239Z,54.87
2019-04-10T00:06:45.869Z,54.43
2019-04-10T00:09:14.771Z,53.73
2019-04-10T00:11:43.243Z,51.97
2019-04-10T00:14:12.366Z,52.03
2019-04-10T00:16:40.614Z,55.17
2019-04-10T00:19:08.899Z,52.70
2019-04-10T00:21:37.604Z,52.67
2019-04-10T00:24:06.093Z,52.40
2019-04-10T00:26:34.331Z,52.10
2019-04-10T00:29:03.600Z,52.27
2019-04-10T00:31:31.860Z,52.37
2019-04-10T00:34:01.067Z,51.80
2019-04-10T00:36:29.614Z,53.23
2019-04-10T00:38:58.059Z,52.70
2019-04-10T00:41:26.323Z,52.13
2019-04-10T00:43:55.278Z,51.27
2019-04-10T00:46:24.262Z,50.63
2019-04-10T00:48:52.796Z,51.03
2019-04-10T00:51:21.349Z,50.47
2019-04-10T00:53:49.812Z,50.63
2019-04-10T00:56:18.653Z,50.70
2019-04-10T00:58:47.894Z,60.43
2019-04-10T01:01:16.295Z,49.27
2019-04-10T01:03:46.637Z,51.33
2019-04-10T01:06:15.805Z,49.70
2019-04-10T01:08:44.737Z,52.30
2019-04-10T01:11:13.205Z,50.00
2019-04-10T01:13:41.475Z,51.10
2019-04-10T01:16:09.780Z,51.63
2019-04-10T01:18:38.044Z,52.70
2019-04-10T01:21:06.333Z,51.50
2019-04-10T01:23:35.127Z,51.77
2019-04-10T01:26:03.871Z,52.97
2019-04-10T01:28:33.140Z,53.53
2019-04-10T01:31:02.498Z,55.03
2019-04-10T01:33:30.836Z,53.33
2019-04-10T01:35:59.127Z,54.23
2019-04-10T01:38:27.743Z,52.03
2019-04-10T01:40:56.035Z,51.93
2019-04-10T01:43:24.558Z,54.27
2019-04-10T01:45:53.665Z,53.13
2019-04-10T01:48:21.967Z,51.90
2019-04-10T01:50:50.763Z,51.50
2019-04-10T01:53:19.698Z,53.27
2019-04-10T01:55:49.050Z,50.77
2019-04-10T01:58:19.205Z,52.50
2019-04-10T02:00:50.602Z,53.53
2019-04-10T02:03:20.125Z,49.40
2019-04-10T02:05:49.164Z,51.00
2019-04-10T02:08:17.991Z,50.63
2019-04-10T02:10:48.155Z,51.87
2019-04-10T02:13:17.136Z,53.23
2019-04-10T02:15:46.086Z,50.60
2019-04-10T02:18:14.437Z,49.20
2019-04-10T02:20:43.159Z,49.93
2019-04-10T02:23:12.241Z,50.00
2019-04-10T02:25:41.084Z,49.30
2019-04-10T02:28:09.582Z,50.13
2019-04-10T02:30:39.614Z,50.73
2019-04-10T02:33:08.456Z,49.17
2019-04-10T02:35:37.983Z,49.43
2019-04-10T02:38:26.044Z,49.27
2019-04-10T02:40:37.344Z,48.63
2019-04-10T02:43:07.803Z,47.33
2019-04-10T02:45:36.561Z,45.87
2019-04-10T02:48:06.118Z,51.17
2019-04-10T02:50:35.393Z,48.47
2019-04-10T02:53:05.376Z,48.50
2019-04-10T02:55:35.394Z,46.87
2019-04-10T02:58:03.848Z,47.37
2019-04-10T03:00:33.682Z,48.10
2019-04-10T03:03:03.565Z,47.80
2019-04-10T03:05:32.643Z,46.80
2019-04-10T03:08:01.983Z,48.67
2019-04-10T03:10:39.981Z,48.17
2019-04-10T03:13:00.894Z,47.67
2019-04-10T03:15:29.697Z,49.07
2019-04-10T03:17:58.641Z,48.43
2019-04-10T03:20:26.989Z,47.53
2019-04-10T03:22:55.264Z,45.37
2019-04-10T03:25:24.548Z,46.23
2019-04-10T03:27:52.890Z,46.30
2019-04-10T03:30:23.466Z,47.63
2019-04-10T03:33:03.467Z,44.43
2019-04-10T03:35:35.962Z,44.10
2019-04-10T03:38:04.228Z,45.70
2019-04-10T03:40:32.524Z,45.97
2019-04-10T03:43:01.486Z,45.33
2019-04-10T03:45:30.723Z,47.13
2019-04-10T03:47:59.976Z,45.17
2019-04-10T03:50:28.349Z,47.70
2019-04-10T03:52:56.611Z,43.47
2019-04-10T03:55:25.134Z,46.30
2019-04-10T03:57:53.591Z,43.60
2019-04-10T04:00:22.438Z,44.67
2019-04-10T04:02:51.841Z,42.60
2019-04-10T04:05:20.407Z,45.50
2019-04-10T04:07:48.634Z,42.87
2019-04-10T04:10:16.925Z,44.27
2019-04-10T04:12:45.200Z,42.77
2019-04-10T04:15:13.672Z,41.97
2019-04-10T04:17:41.907Z,41.73
2019-04-10T04:20:10.801Z,39.43
2019-04-10T04:22:39.289Z,38.93
2019-04-10T04:25:08.640Z,39.83
2019-04-10T04:27:37.780Z,40.90
2019-04-10T04:30:09.450Z,38.97
2019-04-10T04:32:38.663Z,37.97
2019-04-10T04:35:07.501Z,37.90
2019-04-10T04:37:35.853Z,38.90
2019-04-10T04:40:05.681Z,37.60
2019-04-10T04:42:35.041Z,37.30
2019-04-10T04:45:03.645Z,35.70
2019-04-10T04:47:31.933Z,36.30
2019-04-10T04:50:01.373Z,35.67
2019-04-10T04:52:29.880Z,34.00
2019-04-10T04:54:58.159Z,35.10
2019-04-10T04:57:26.448Z,34.10
2019-04-10T04:59:54.859Z,32.50
2019-04-10T05:02:23.090Z,31.83
2019-04-10T05:04:51.525Z,33.23
2019-04-10T05:07:20.330Z,31.70
2019-04-10T05:09:49.006Z,30.73
2019-04-10T05:12:18.100Z,31.87
2019-04-10T05:14:46.469Z,30.40
2019-04-10T05:17:16.654Z,28.87
2019-04-10T05:19:44.769Z,29.83
2019-04-10T05:22:13.034Z,29.50
2019-04-10T05:24:41.294Z,28.80
2019-04-10T05:27:09.882Z,30.43
2019-04-10T05:29:38.752Z,31.10
2019-04-10T05:32:07.289Z,29.03
2019-04-10T05:34:36.184Z,30.97
2019-04-10T05:37:05.254Z,31.43
2019-04-10T05:39:40.593Z,30.10
2019-04-10T05:42:04.282Z,27.60
2019-04-10T05:44:32.618Z,29.73
2019-04-10T05:47:01.195Z,29.90
2019-04-10T05:49:29.660Z,28.60
2019-04-10T05:51:57.936Z,29.50
2019-04-10T05:54:26.956Z,30.17
2019-04-10T05:56:55.441Z,27.93
2019-04-10T05:59:23.936Z,27.67
2019-04-10T06:01:52.770Z,28.37
2019-04-10T06:04:21.105Z,28.80
2019-04-10T06:06:49.517Z,27.43
2019-04-10T06:09:17.888Z,29.70
2019-04-10T06:11:47.251Z,27.73
2019-04-10T06:14:15.869Z,27.33
2019-04-10T06:16:44.743Z,28.97
2019-04-10T06:19:13.128Z,27.17
2019-04-10T06:21:46.314Z,27.33
2019-04-10T06:24:34.246Z,28.13
2019-04-10T06:27:02.512Z,27.37
2019-04-10T06:29:30.963Z,29.83
2019-04-10T06:31:59.226Z,29.57
2019-04-10T06:34:27.505Z,29.17
2019-04-10T06:36:55.842Z,28.90
2019-04-10T06:39:24.772Z,28.77
2019-04-10T06:41:53.180Z,28.10
2019-04-10T06:44:21.779Z,29.27
2019-04-10T06:46:50.107Z,29.67
2019-04-10T06:49:18.372Z,30.00
2019-04-10T06:51:46.906Z,27.73
2019-04-10T06:54:16.347Z,28.17
2019-04-10T06:56:45.384Z,28.30
2019-04-10T06:59:14.772Z,28.17
2019-04-10T07:01:50.470Z,29.43
2019-04-10T07:04:13.493Z,28.13
2019-04-10T07:06:52.887Z,27.33
2019-04-10T07:09:13.822Z,27.50
2019-04-10T07:11:42.873Z,29.57
2019-04-10T07:14:13.968Z,29.13
2019-04-10T07:16:42.232Z,26.23
2019-04-10T07:19:12.845Z,29.00
2019-04-10T07:21:40.648Z,28.53
2019-04-10T07:24:10.977Z,26.20
2019-04-10T07:26:42.218Z,26.97
2019-04-10T07:29:09.071Z,27.10
2019-04-10T07:31:38.265Z,27.50
2019-04-10T07:34:07.501Z,27.33
2019-04-10T07:36:39.942Z,27.07
2019-04-10T07:39:07.688Z,27.07
2019-04-10T07:41:36.163Z,27.10
2019-04-10T07:44:04.466Z,28.17
2019-04-10T07:46:32.763Z,26.37
2019-04-10T07:49:01.040Z,27.67
2019-04-10T07:51:29.807Z,26.87
2019-04-10T07:53:58.262Z,27.23
2019-04-10T07:56:26.778Z,28.40
2019-04-10T07:58:55.969Z,29.33
2019-04-10T08:01:24.394Z,28.27
2019-04-10T08:03:53.937Z,26.07
2019-04-10T08:06:23.487Z,27.10
2019-04-10T08:08:52.074Z,26.90
2019-04-10T08:11:20.354Z,28.60
2019-04-10T08:13:49.215Z,26.47
2019-04-10T08:16:17.689Z,27.17
2019-04-10T08:18:45.947Z,29.00
2019-04-10T08:21:14.216Z,26.27
2019-04-10T08:23:42.482Z,28.10
2019-04-10T08:26:10.743Z,26.50
2019-04-10T08:28:39.102Z,29.13
2019-04-10T08:31:08.547Z,28.10
2019-04-10T08:33:37.127Z,26.27
2019-04-10T08:36:05.454Z,27.27
2019-04-10T08:38:34.499Z,29.40
2019-04-10T08:41:02.939Z,25.90
2019-04-10T08:43:32.334Z,27.33
2019-04-10T08:46:01.872Z,28.20
2019-04-10T08:48:31.509Z,28.50
2019-04-10T08:51:01.031Z,26.30
2019-04-10T08:53:30.390Z,28.57
2019-04-10T08:55:58.943Z,27.87
2019-04-10T08:58:27.232Z,27.97
2019-04-10T09:00:56.589Z,29.47
2019-04-10T09:03:24.981Z,26.73
2019-04-10T09:05:53.257Z,27.90
2019-04-10T09:08:21.527Z,26.90
2019-04-10T09:10:50.413Z,28.53
2019-04-10T09:13:20.062Z,29.60
2019-04-10T09:15:48.565Z,26.90
2019-04-10T09:18:16.919Z,25.70
2019-04-10T09:20:45.130Z,26.27
2019-04-10T09:23:23.780Z,26.00
2019-04-10T09:25:43.767Z,26.67
2019-04-10T09:28:12.046Z,25.50
2019-04-10T09:30:40.777Z,24.33
2019-04-10T09:33:16.918Z,25.30
2019-04-10T09:35:40.246Z,24.97
2019-04-10T09:38:08.857Z,23.63
2019-04-10T09:40:38.352Z,24.37
2019-04-10T09:43:07.314Z,23.47
2019-04-10T09:45:35.666Z,23.73
2019-04-10T09:48:04.287Z,23.50
2019-04-10T09:50:33.155Z,23.93
2019-04-10T09:53:02.060Z,24.37
2019-04-10T09:55:30.404Z,25.10
2019-04-10T09:57:58.680Z,23.63
2019-04-10T10:00:27.838Z,23.23
2019-04-10T10:02:56.289Z,22.97
2019-04-10T10:05:24.568Z,21.73
2019-04-10T10:07:55.671Z,24.50
2019-04-10T10:10:22.866Z,22.80
2019-04-10T10:12:51.151Z,23.10
2019-04-10T10:15:19.499Z,21.27
2019-04-10T10:17:48.789Z,20.50
2019-04-10T10:20:17.493Z,20.40
2019-04-10T10:22:45.726Z,21.40
2019-04-10T10:25:15.302Z,19.80
2019-04-10T10:27:44.746Z,21.03
2019-04-10T10:30:13.544Z,20.73
2019-04-10T10:32:42.371Z,20.80
2019-04-10T10:35:12.351Z,21.03
2019-04-10T10:37:41.017Z,22.10
2019-04-10T10:40:10.119Z,21.20
2019-04-10T10:42:40.208Z,20.30
2019-04-10T10:45:10.538Z,20.90
2019-04-10T10:47:40.160Z,21.50
2019-04-10T10:50:09.367Z,19.37
2019-04-10T10:52:37.659Z,20.03
2019-04-10T10:55:07.659Z,20.77
2019-04-10T10:57:36.090Z,20.57
2019-04-10T11:00:06.473Z,21.30
2019-04-10T11:02:35.888Z,19.67
2019-04-10T11:05:07.097Z,19.77
2019-04-10T11:07:35.340Z,19.73
2019-04-10T11:10:04.313Z,18.87
2019-04-10T11:12:34.018Z,20.23
2019-04-10T11:15:03.672Z,19.83
2019-04-10T11:17:34.144Z,20.27
2019-04-10T11:20:10.055Z,19.43
2019-04-10T11:22:47.342Z,20.80
2019-04-10T11:25:15.956Z,18.47
2019-04-10T11:27:44.235Z,19.43
2019-04-10T11:30:13.272Z,18.17
2019-04-10T11:32:42.347Z,19.10
2019-04-10T11:35:11.201Z,18.57
2019-04-10T11:37:44.566Z,18.17
2019-04-10T11:40:12.386Z,19.17
2019-04-10T11:42:42.771Z,18.70
2019-04-10T11:45:11.362Z,18.43
2019-04-10T11:47:39.731Z,18.30
2019-04-10T11:50:13.093Z,18.10
2019-04-10T11:52:42.506Z,22.50
2019-04-10T11:55:13.735Z,19.67
2019-04-10T11:57:38.941Z,23.67
2019-04-10T12:00:12.038Z,22.50
2019-04-10T12:02:39.728Z,20.03
2019-04-10T12:08:17.560Z,21.20
2019-04-10T12:12:38.606Z,20.67
2019-04-10T12:15:08.120Z,22.03
2019-04-10T12:17:36.377Z,20.47
2019-04-10T12:20:06.960Z,20.60
2019-04-10T12:22:35.850Z,20.87
2019-04-10T12:25:06.850Z,20.43
2019-04-10T12:27:35.329Z,19.30
2019-04-10T12:30:06.862Z,20.67
2019-04-10T12:32:35.256Z,18.90
2019-04-10T12:35:04.893Z,20.20
2019-04-10T12:37:33.182Z,18.27
2019-04-10T12:40:01.492Z,18.10
2019-04-10T12:42:30.254Z,18.60
2019-04-10T12:44:59.548Z,19.20
2019-04-10T12:47:28.051Z,17.47
2019-04-10T12:49:56.902Z,16.97
2019-04-10T12:52:25.509Z,19.07
2019-04-10T12:54:55.284Z,21.13
2019-04-10T12:57:23.614Z,21.47
2019-04-10T12:59:52.001Z,21.47
2019-04-10T13:02:20.559Z,17.80
2019-04-10T13:04:49.044Z,18.80
2019-04-10T13:07:17.330Z,19.50
2019-04-10T13:09:46.346Z,19.70
2019-04-10T13:12:15.315Z,18.90
2019-04-10T13:14:43.659Z,20.37
2019-04-10T13:17:12.357Z,18.87
2019-04-10T13:19:40.967Z,19.47
2019-04-10T13:22:09.592Z,19.83
2019-04-10T13:24:37.858Z,18.43
2019-04-10T13:27:06.266Z,19.57
2019-04-10T13:29:34.849Z,17.67
2019-04-10T13:32:03.481Z,18.30
2019-04-10T13:34:31.800Z,18.53
2019-04-10T13:37:00.088Z,17.63
2019-04-10T13:39:28.358Z,18.57
2019-04-10T13:41:56.746Z,17.47
2019-04-10T13:44:25.034Z,18.80
2019-04-10T13:46:53.296Z,18.00
2019-04-10T13:49:22.003Z,17.00
2019-04-10T13:51:50.340Z,16.33
2019-04-10T13:54:18.882Z,17.73
2019-04-10T13:56:47.954Z,19.20
2019-04-10T13:59:17.123Z,17.90
2019-04-10T14:01:45.560Z,17.07
2019-04-10T14:04:14.673Z,16.47
2019-04-10T14:06:44.127Z,16.87
2019-04-10T14:09:31.249Z,17.90
2019-04-10T14:11:49.367Z,19.60
2019-04-10T14:14:18.274Z,18.00
2019-04-10T14:16:46.828Z,17.23
2019-04-10T14:19:15.164Z,17.80
2019-04-10T14:21:43.408Z,17.00
2019-04-10T14:24:12.571Z,18.03
2019-04-10T14:27:00.092Z,18.13
2019-04-10T14:29:28.916Z,16.70
2019-04-10T14:31:59.128Z,16.20
2019-04-10T14:34:28.409Z,18.00
2019-04-10T14:36:56.953Z,16.90
2019-04-10T14:39:25.180Z,17.30
2019-04-10T14:41:53.927Z,16.20
2019-04-10T14:44:23.320Z,18.03
2019-04-10T14:46:51.872Z,17.70
2019-04-10T14:49:20.871Z,17.23
2019-04-10T14:51:49.444Z,17.90
2019-04-10T14:54:18.178Z,16.03
2019-04-10T14:56:46.474Z,17.83
2019-04-10T14:59:15.745Z,18.30
2019-04-10T15:01:44.272Z,16.87
2019-04-10T15:04:12.976Z,15.43
2019-04-10T15:06:41.744Z,16.97
2019-04-10T15:09:24.946Z,16.73
2019-04-10T15:11:48.989Z,17.63
2019-04-10T15:14:17.481Z,17.00
2019-04-10T15:16:54.341Z,16.40
2019-04-10T15:19:16.286Z,15.70
2019-04-10T15:21:45.126Z,16.10
2019-04-10T15:24:13.452Z,17.37
2019-04-10T15:26:41.736Z,17.73
2019-04-10T15:29:10.038Z,17.27
2019-04-10T15:31:38.345Z,16.07
2019-04-10T15:34:06.712Z,15.20
2019-04-10T15:36:35.934Z,16.63
2019-04-10T15:39:06.826Z,16.17
2019-04-10T15:41:35.112Z,16.87
2019-04-10T15:44:03.447Z,17.17
2019-04-10T15:46:33.104Z,15.70
2019-04-10T15:49:02.670Z,18.23
2019-04-10T15:51:32.047Z,16.77
2019-04-10T15:54:01.252Z,15.77
2019-04-10T15:56:29.875Z,16.80
2019-04-10T15:58:58.263Z,15.80
2019-04-10T16:01:28.391Z,16.60
2019-04-10T16:03:56.648Z,15.90
2019-04-10T16:06:25.147Z,16.50
2019-04-10T16:08:53.439Z,18.20
2019-04-10T16:11:36.208Z,19.17
2019-04-10T16:14:16.663Z,17.70
2019-04-10T16:16:44.387Z,16.20
2019-04-10T16:19:14.373Z,17.43
2019-04-10T16:21:43.552Z,16.70
2019-04-10T16:24:14.472Z,17.07
2019-04-10T16:26:43.285Z,18.00
2019-04-10T16:29:11.715Z,17.67
2019-04-10T16:31:39.989Z,18.83
2019-04-10T16:34:09.218Z,17.10
2019-04-10T16:36:37.550Z,17.20
2019-04-10T16:39:09.832Z,15.87
2019-04-10T16:41:38.098Z,16.60
2019-04-10T16:44:06.385Z,16.67
2019-04-10T16:46:34.643Z,15.97
2019-04-10T16:49:02.923Z,15.20
2019-04-10T16:51:32.115Z,17.27
2019-04-10T16:54:00.575Z,15.87
2019-04-10T16:56:29.775Z,15.67
2019-04-10T16:58:58.448Z,16.37
2019-04-10T17:01:26.873Z,16.53
2019-04-10T17:03:55.121Z,16.60
2019-04-10T17:06:23.481Z,15.37
2019-04-10T17:08:52.289Z,15.63
2019-04-10T17:11:21.040Z,16.17
2019-04-10T17:13:49.464Z,16.37
2019-04-10T17:16:17.774Z,17.73
2019-04-10T17:18:46.045Z,17.03
2019-04-10T17:21:15.179Z,16.53
2019-04-10T17:23:43.470Z,17.67
2019-04-10T17:26:12.929Z,16.23
2019-04-10T17:28:42.665Z,16.97
2019-04-10T17:31:11.816Z,15.73
2019-04-10T17:33:40.095Z,18.20
2019-04-10T17:36:09.584Z,18.80
2019-04-10T17:38:38.624Z,16.70
2019-04-10T17:41:07.270Z,17.23
2019-04-10T17:43:37.112Z,17.37
2019-04-10T17:46:05.590Z,17.60
2019-04-10T17:48:34.864Z,15.40
2019-04-10T17:51:05.831Z,17.00
2019-04-10T17:53:35.613Z,18.97
2019-04-10T17:56:04.626Z,18.40
2019-04-10T17:58:33.832Z,17.13
2019-04-10T18:01:08.363Z,17.80
2019-04-10T18:03:51.751Z,15.80
2019-04-10T18:06:15.152Z,16.37
2019-04-10T18:08:43.478Z,15.03
2019-04-10T18:11:12.096Z,20.33
2019-04-10T18:13:40.594Z,15.60
2019-04-10T18:16:08.831Z,15.10
2019-04-10T18:18:37.969Z,14.77
2019-04-10T18:21:06.683Z,17.07
2019-04-10T18:23:35.589Z,15.07
2019-04-10T18:26:08.700Z,17.00
2019-04-10T18:29:05.990Z,14.47
2019-04-10T18:31:35.183Z,15.40
2019-04-10T18:34:06.488Z,15.40
2019-04-10T18:36:33.698Z,13.57
2019-04-10T18:39:01.996Z,14.23
2019-04-10T18:41:30.255Z,13.30
2019-04-10T18:43:58.600Z,15.83
2019-04-10T18:46:27.074Z,13.90
2019-04-10T18:48:55.360Z,14.07
2019-04-10T18:51:23.694Z,13.43
2019-04-10T18:53:51.987Z,14.97
2019-04-10T18:56:20.809Z,13.67
2019-04-10T18:58:50.776Z,13.40
2019-04-10T19:01:29.889Z,13.47
2019-04-10T19:04:11.931Z,12.63
2019-04-10T19:06:44.821Z,13.40
2019-04-10T19:09:21.325Z,13.83
2019-04-10T19:11:44.741Z,13.10
2019-04-10T19:14:14.243Z,14.07
2019-04-10T19:16:43.591Z,13.43
2019-04-10T19:19:12.383Z,13.53
2019-04-10T19:21:42.120Z,15.97
2019-04-10T19:24:11.978Z,13.20
2019-04-10T19:26:40.353Z,13.53
2019-04-10T19:29:09.556Z,12.87
2019-04-10T19:31:40.282Z,13.17
2019-04-10T19:34:09.397Z,12.67
2019-04-10T19:36:37.832Z,13.70
2019-04-10T19:39:08.061Z,12.90
2019-04-10T19:41:39.750Z,13.20
2019-04-10T19:44:06.549Z,12.40
2019-04-10T19:46:34.817Z,13.60
2019-04-10T19:49:03.907Z,12.77
2019-04-10T19:51:32.276Z,15.63
2019-04-10T19:54:03.038Z,13.90
2019-04-10T19:56:30.781Z,13.40
2019-04-10T19:58:59.143Z,13.10
2019-04-10T20:01:30.056Z,13.47
2019-04-10T20:03:57.462Z,12.30
2019-04-10T20:06:25.759Z,13.67
2019-04-10T20:08:54.074Z,13.57
2019-04-10T20:11:31.833Z,12.80
2019-04-10T20:13:52.342Z,13.20
2019-04-10T20:16:20.656Z,12.77
2019-04-10T20:18:48.929Z,13.90
2019-04-10T20:21:17.631Z,12.90
2019-04-10T20:23:46.051Z,12.77
2019-04-10T20:26:14.765Z,12.40
2019-04-10T20:28:43.124Z,13.40
2019-04-10T20:31:13.194Z,12.80
2019-04-10T20:33:41.460Z,13.57
2019-04-10T20:36:10.930Z,13.00
2019-04-10T20:38:40.762Z,12.73
2019-04-10T20:41:09.201Z,13.20
2019-04-10T20:43:37.494Z,12.00
2019-04-10T20:46:06.616Z,12.50
2019-04-10T20:48:34.878Z,12.30
2019-04-10T20:51:04.068Z,11.77
2019-04-10T20:53:34.031Z,12.20
2019-04-10T20:56:03.696Z,11.03
2019-04-10T20:58:31.952Z,12.10
2019-04-10T21:01:00.426Z,11.63
2019-04-10T21:03:28.701Z,10.90
2019-04-10T21:05:58.284Z,11.20
2019-04-10T21:08:27.724Z,12.20
2019-04-10T21:10:56.928Z,11.63
2019-04-10T21:13:25.424Z,11.93
2019-04-10T21:15:54.883Z,12.67
2019-04-10T21:18:23.714Z,13.40
2019-04-10T21:20:51.997Z,11.23
2019-04-10T21:23:20.296Z,11.67
2019-04-10T21:25:49.743Z,11.77
2019-04-10T21:28:18.413Z,12.77
2019-04-10T21:30:50.752Z,12.00
2019-04-10T21:33:26.439Z,11.90
2019-04-10T21:35:54.720Z,11.23
2019-04-10T21:38:23.565Z,12.03
2019-04-10T21:40:51.891Z,12.27
2019-04-10T21:43:21.334Z,12.30
2019-04-10T21:45:49.760Z,11.83
2019-04-10T21:48:18.889Z,13.50
2019-04-10T21:50:47.323Z,11.80
2019-04-10T21:53:16.443Z,11.90
2019-04-10T21:55:45.769Z,11.60
2019-04-10T21:58:14.502Z,11.97
2019-04-10T22:00:57.101Z,11.80
2019-04-10T22:03:27.449Z,12.50
2019-04-10T22:06:03.619Z,11.90
2019-04-10T22:08:52.053Z,12.50
2019-04-10T22:11:21.142Z,12.90
2019-04-10T22:13:50.605Z,12.00
2019-04-10T22:16:19.972Z,11.60
2019-04-10T22:18:48.303Z,11.47
2019-04-10T22:21:16.989Z,12.03
2019-04-10T22:23:45.248Z,11.93
2019-04-10T22:26:13.875Z,11.80
2019-04-10T22:28:43.444Z,10.60
2019-04-10T22:31:11.755Z,12.80
2019-04-10T22:33:40.490Z,13.60
2019-04-10T22:36:08.778Z,13.30
2019-04-10T22:38:37.770Z,13.30
2019-04-10T22:41:19.541Z,12.40
2019-04-10T22:43:36.436Z,12.80
2019-04-10T22:46:04.884Z,13.63
2019-04-10T22:48:33.119Z,12.97
2019-04-10T22:51:01.400Z,16.43
2019-04-10T22:53:29.673Z,13.90
2019-04-10T22:55:58.427Z,14.17
2019-04-10T22:58:26.929Z,13.93
2019-04-10T23:00:55.911Z,13.83
2019-04-10T23:03:24.480Z,14.03
2019-04-10T23:05:53.076Z,15.93
2019-04-10T23:08:21.507Z,15.77
2019-04-10T23:10:51.054Z,15.07
2019-04-10T23:13:19.322Z,15.70
2019-04-10T23:15:47.598Z,16.30
2019-04-10T23:18:17.022Z,16.40
2019-04-10T23:20:45.598Z,17.20
2019-04-10T23:23:14.721Z,16.50
2019-04-10T23:25:43.251Z,16.83
2019-04-10T23:28:11.575Z,16.70
2019-04-10T23:30:39.933Z,16.20
2019-04-10T23:33:08.288Z,17.00
2019-04-10T23:35:37.801Z,16.40
2019-04-10T23:38:07.041Z,17.93
2019-04-10T23:40:35.337Z,17.93
2019-04-10T23:43:11.248Z,17.20
2019-04-10T23:45:33.689Z,17.77
2019-04-10T23:48:01.983Z,17.10
2019-04-10T23:50:30.388Z,16.50
2019-04-10T23:52:58.868Z,17.17
2019-04-10T23:55:32.275Z,18.80
2019-04-10T23:58:00.554Z,18.70
